Time;durP1;ratioP1;P1;durP2;ratioP2;P2;SDS_P1;SDS_P2;PMS_P1;PMS_P2;Temp;Humidity;BMP_temperature;BMP_pressure;BME280_temperature;BME280_humidity;BME280_pressure;Samples;Min_cycle;Max_cycle;Signal;HPM_P1;HPM_P2
2021/12/21 00:01:21;;;;;;;35.95;25.00;;;8.80;81.40;;;;;;5015111;28;20096;-71
2021/12/21 00:03:47;;;;;;;32.75;24.02;;;8.70;81.00;;;;;;5015368;28;20083;-71
2021/12/21 00:06:13;;;;;;;33.33;24.42;;;8.70;81.20;;;;;;5015328;28;20115;-70
2021/12/21 00:08:39;;;;;;;34.08;22.05;;;8.70;81.20;;;;;;5015037;28;20455;-71
2021/12/21 00:11:05;;;;;;;31.08;21.92;;;8.70;81.20;;;;;;5014916;28;20041;-68
2021/12/21 00:23:51;;;;;;;30.05;19.38;;;8.60;80.80;;;;;;5014670;28;20030;-67
2021/12/21 00:26:20;;;;;;;26.40;19.67;;;8.60;81.50;;;;;;5014561;28;20117;-67
2021/12/21 00:28:54;;;;;;;31.55;19.63;;;8.60;81.60;;;;;;4996769;28;20491;-68
2021/12/21 00:31:21;;;;;;;29.15;19.48;;;8.50;81.80;;;;;;5014685;28;20036;-67
2021/12/21 00:33:47;;;;;;;28.60;19.80;;;8.40;81.80;;;;;;5014634;28;20022;-68
2021/12/21 00:36:19;;;;;;;26.85;19.80;;;8.40;81.80;;;;;;5014396;28;20022;-66
2021/12/21 00:38:46;;;;;;;33.47;20.63;;;8.30;82.30;;;;;;5014174;28;20022;-67
2021/12/21 00:41:13;;;;;;;31.52;20.42;;;8.30;82.20;;;;;;5014223;28;20026;-67
2021/12/21 00:43:39;;;;;;;34.15;20.50;;;8.30;82.50;;;;;;5014301;28;20022;-67
2021/12/21 00:46:05;;;;;;;28.33;20.30;;;8.30;82.30;;;;;;5014314;28;20426;-68
2021/12/21 00:48:32;;;;;;;30.80;21.05;;;8.30;82.20;;;;;;5013974;28;20046;-68
2021/12/21 00:51:00;;;;;;;30.60;20.67;;;8.30;82.60;;;;;;5014122;28;20045;-69
2021/12/21 00:53:26;;;;;;;27.63;20.20;;;8.30;82.70;;;;;;5014136;28;20041;-68
2021/12/21 00:55:52;;;;;;;27.80;20.88;;;8.30;83.00;;;;;;5014124;28;20475;-67
2021/12/21 00:58:19;;;;;;;26.08;19.05;;;8.30;83.30;;;;;;5013974;28;20014;-71
2021/12/21 01:00:45;;;;;;;29.85;19.73;;;8.30;82.80;;;;;;5014071;28;20105;-68
2021/12/21 01:03:13;;;;;;;26.10;20.30;;;8.20;82.80;;;;;;5013916;28;20105;-66
2021/12/21 01:08:17;;;;;;;26.08;20.55;;;8.30;83.00;;;;;;5013945;28;20069;-67
2021/12/21 01:13:15;;;;;;;29.73;21.35;;;8.20;82.90;;;;;;5013983;28;20040;-68
2021/12/21 01:16:04;;;;;;;30.33;22.70;;;8.20;83.40;;;;;;5013837;28;20459;-68
2021/12/21 01:18:42;;;;;;;32.60;22.45;;;8.20;83.50;;;;;;5013495;28;20033;-70
2021/12/21 01:21:14;;;;;;;34.60;23.02;;;8.20;83.90;;;;;;5013798;28;20072;-68
2021/12/21 01:34:22;;;;;;;25.92;19.98;;;8.20;84.30;;;;;;5013748;28;20133;-69
2021/12/21 01:37:42;;;;;;;25.25;18.77;;;8.20;84.50;;;;;;5013419;28;20475;-71
2021/12/21 01:42:30;;;;;;;25.73;17.38;;;8.10;84.50;;;;;;5013363;28;20038;-72
2021/12/21 01:50:24;;;;;;;;;;;8.00;84.70;;;;;;5013342;28;20057;-67
2021/12/21 01:52:50;;;;;;;23.95;15.40;;;8.00;85.60;;;;;;5013323;28;19989;-66
2021/12/21 01:55:16;;;;;;;26.85;17.02;;;7.90;85.20;;;;;;5013089;28;20030;-68
2021/12/21 01:57:42;;;;;;;20.38;15.57;;;7.90;84.70;;;;;;5013029;28;20029;-67
2021/12/21 02:00:09;;;;;;;21.55;15.60;;;8.00;84.40;;;;;;5013204;28;20014;-69
2021/12/21 02:02:35;;;;;;;21.85;15.57;;;8.00;84.50;;;;;;5013015;28;20026;-67
2021/12/21 02:05:02;;;;;;;18.67;14.90;;;8.00;84.60;;;;;;5013152;28;20494;-67
2021/12/21 02:07:28;;;;;;;21.90;15.80;;;8.00;84.60;;;;;;5012901;28;20029;-69
2021/12/21 02:09:53;;;;;;;20.92;15.40;;;8.00;84.10;;;;;;5012929;28;20030;-70
2021/12/21 02:12:21;;;;;;;20.67;15.43;;;8.00;84.50;;;;;;5013335;28;20451;-67
2021/12/21 02:14:54;;;;;;;25.48;16.67;;;8.00;84.60;;;;;;4995382;28;20026;-66
2021/12/21 02:20:20;;;;;;;22.52;16.38;;;8.00;85.30;;;;;;5012928;28;20502;-68
2021/12/21 02:22:54;;;;;;;25.45;17.80;;;8.00;85.00;;;;;;5013015;28;20533;-66
2021/12/21 02:28:09;;;;;;;22.30;17.05;;;8.00;84.70;;;;;;5012696;28;20022;-66
2021/12/21 02:30:37;;;;;;;25.85;17.20;;;8.00;86.00;;;;;;5012742;28;20053;-68
2021/12/21 02:33:03;;;;;;;25.50;17.92;;;7.90;85.90;;;;;;5012803;28;20029;-67
2021/12/21 02:35:30;;;;;;;24.90;17.08;;;7.90;85.80;;;;;;5012908;28;20034;-69
2021/12/21 02:37:55;;;;;;;23.60;18.02;;;7.90;86.00;;;;;;5012803;28;20025;-69
2021/12/21 02:40:21;;;;;;;26.98;18.20;;;7.90;86.20;;;;;;5013100;28;20387;-67
2021/12/21 02:42:47;;;;;;;28.92;17.80;;;7.90;86.30;;;;;;5016669;28;20053;-67
2021/12/21 02:45:13;;;;;;;24.90;17.98;;;7.80;86.60;;;;;;5016576;28;20030;-66
2021/12/21 02:47:39;;;;;;;25.08;17.63;;;7.80;86.60;;;;;;5016400;28;20026;-71
2021/12/21 02:50:05;;;;;;;25.23;17.23;;;7.80;86.80;;;;;;5016262;28;20088;-67
2021/12/21 02:52:33;;;;;;;23.92;17.48;;;7.80;86.40;;;;;;5016226;28;20033;-67
2021/12/21 02:55:00;;;;;;;25.48;17.33;;;7.70;87.20;;;;;;5016260;28;20057;-71
2021/12/21 02:57:26;;;;;;;25.60;17.48;;;7.70;87.10;;;;;;4998673;28;20027;-68
2021/12/21 02:59:52;;;;;;;24.23;16.33;;;7.70;86.90;;;;;;5016569;28;20088;-67
2021/12/21 03:02:17;;;;;;;26.75;16.95;;;7.70;87.40;;;;;;5016459;28;20025;-70
2021/12/21 03:04:45;;;;;;;22.42;17.75;;;7.70;87.00;;;;;;5016184;28;20022;-69
2021/12/21 03:09:40;;;;;;;23.38;16.90;;;7.70;87.60;;;;;;5016011;28;20034;-69
2021/12/21 03:12:28;;;;;;;26.38;17.92;;;7.60;87.10;;;;;;5015967;28;20498;-67
2021/12/21 03:14:54;;;;;;;23.77;17.60;;;7.70;87.10;;;;;;5016150;28;20533;-66
2021/12/21 03:17:20;;;;;;;26.10;18.45;;;7.60;87.80;;;;;;5015951;28;20120;-66
2021/12/21 03:19:46;;;;;;;25.25;18.25;;;7.60;87.50;;;;;;5015816;28;20387;-68
2021/12/21 03:22:14;;;;;;;22.05;16.55;;;7.50;87.10;;;;;;5015884;28;20014;-69
2021/12/21 03:24:42;;;;;;;26.20;18.13;;;7.50;87.70;;;;;;5015875;28;20115;-67
2021/12/21 03:27:08;;;;;;;24.58;17.65;;;7.50;87.60;;;;;;5015717;28;20538;-69
2021/12/21 03:29:34;;;;;;;23.58;18.08;;;7.50;87.90;;;;;;5015675;28;20105;-67
2021/12/21 03:32:01;;;;;;;23.13;16.52;;;7.40;87.50;;;;;;5015839;28;20105;-68
2021/12/21 03:34:27;;;;;;;22.42;16.00;;;7.50;87.60;;;;;;5015672;28;20036;-67
2021/12/21 03:36:53;;;;;;;25.00;17.48;;;7.40;87.80;;;;;;5015790;28;20065;-69
2021/12/21 03:39:20;;;;;;;23.30;16.52;;;7.40;87.60;;;;;;5015503;28;20026;-73
2021/12/21 03:41:49;;;;;;;25.65;17.50;;;7.50;87.80;;;;;;5015545;28;20021;-69
2021/12/21 03:44:17;;;;;;;25.48;18.08;;;7.50;88.40;;;;;;5015518;28;20437;-68
2021/12/21 03:46:48;;;;;;;25.52;17.35;;;7.50;87.60;;;;;;5015505;28;20026;-67
2021/12/21 03:51:53;;;;;;;24.95;17.55;;;7.40;87.90;;;;;;5014488;28;20057;-67
2021/12/21 03:54:19;;;;;;;23.90;17.27;;;7.30;87.90;;;;;;5015182;28;20060;-67
2021/12/21 03:56:48;;;;;;;25.02;17.52;;;7.30;88.10;;;;;;5015304;28;20109;-67
2021/12/21 03:59:15;;;;;;;22.10;17.15;;;7.30;88.10;;;;;;5015384;28;20054;-67
2021/12/21 04:01:41;;;;;;;25.02;17.65;;;7.20;87.60;;;;;;5015202;28;20044;-68
2021/12/21 04:04:08;;;;;;;26.23;17.48;;;7.20;88.20;;;;;;5015100;28;20073;-68
2021/12/21 04:06:35;;;;;;;22.98;16.90;;;7.20;88.60;;;;;;5014989;28;20391;-67
2021/12/21 04:09:05;;;;;;;24.88;17.13;;;7.20;88.80;;;;;;5015071;28;20030;-68
2021/12/21 04:11:32;;;;;;;24.63;18.02;;;7.40;87.80;;;;;;5015304;28;20396;-68
2021/12/21 04:13:58;;;;;;;23.67;17.38;;;7.40;88.30;;;;;;5015365;28;20100;-68
2021/12/21 04:16:24;;;;;;;21.25;16.83;;;7.40;88.30;;;;;;5015200;28;20030;-68
2021/12/21 04:18:50;;;;;;;22.80;17.33;;;7.50;87.90;;;;;;4997629;28;20061;-70
2021/12/21 04:21:16;;;;;;;23.35;16.38;;;7.40;87.80;;;;;;5015217;28;20064;-67
2021/12/21 04:23:43;;;;;;;22.30;16.95;;;7.40;88.20;;;;;;5015277;28;20034;-69
2021/12/21 04:26:10;;;;;;;25.23;17.77;;;7.40;88.30;;;;;;5014824;28;20026;-67
2021/12/21 04:28:36;;;;;;;22.13;17.63;;;7.40;88.00;;;;;;5014427;28;20034;-70
2021/12/21 04:31:03;;;;;;;22.17;16.73;;;7.40;88.00;;;;;;5014803;28;20045;-66
2021/12/21 04:33:30;;;;;;;22.33;16.88;;;7.40;88.20;;;;;;5014845;28;20421;-67
2021/12/21 04:35:57;;;;;;;26.25;17.70;;;7.40;88.40;;;;;;5014786;28;20026;-72
2021/12/21 04:38:27;;;;;;;21.42;16.20;;;7.40;88.30;;;;;;5014446;28;20057;-68
2021/12/21 04:41:03;;;;;;;24.17;16.90;;;7.40;88.20;;;;;;5014303;28;20030;-67
2021/12/21 04:43:29;;;;;;;21.95;16.23;;;7.40;88.60;;;;;;5014453;28;20037;-67
2021/12/21 04:45:55;;;;;;;23.60;17.00;;;7.40;87.90;;;;;;5014453;28;20018;-68
2021/12/21 04:48:21;;;;;;;22.77;16.33;;;7.50;88.00;;;;;;5014098;28;20026;-71
2021/12/21 04:50:48;;;;;;;21.33;16.90;;;7.50;87.50;;;;;;5014143;28;20034;-67
2021/12/21 04:53:15;;;;;;;24.13;17.15;;;7.50;88.10;;;;;;5014043;28;20112;-68
2021/12/21 04:55:41;;;;;;;24.92;16.55;;;7.40;87.80;;;;;;5013892;28;20096;-68
2021/12/21 04:58:07;;;;;;;23.73;16.27;;;7.40;87.70;;;;;;5014218;28;20029;-68
2021/12/21 05:00:34;;;;;;;22.90;16.85;;;7.50;88.10;;;;;;4996700;28;20045;-72
2021/12/21 05:03:01;;;;;;;23.67;16.52;;;7.50;88.10;;;;;;5014400;28;20105;-74
2021/12/21 05:05:27;;;;;;;25.38;18.25;;;7.50;87.40;;;;;;4996523;28;20030;-71
2021/12/21 05:08:06;;;;;;;21.90;16.90;;;7.40;87.80;;;;;;5014001;28;20485;-70
2021/12/21 05:10:42;;;;;;;23.35;15.77;;;7.40;88.10;;;;;;5014028;28;20049;-72
2021/12/21 05:13:08;;;;;;;25.25;17.45;;;7.30;88.60;;;;;;5014056;28;20113;-75
2021/12/21 05:15:34;;;;;;;26.65;16.98;;;7.30;88.00;;;;;;5014038;28;20097;-75
2021/12/21 05:17:59;;;;;;;24.05;16.88;;;7.30;88.30;;;;;;5014028;28;20014;-73
2021/12/21 05:20:25;;;;;;;22.42;16.98;;;7.40;88.10;;;;;;5013826;28;20018;-73
2021/12/21 05:22:51;;;;;;;24.63;16.25;;;7.40;88.00;;;;;;5013991;28;20104;-69
2021/12/21 05:25:17;;;;;;;24.33;16.55;;;7.30;87.90;;;;;;5013960;28;20087;-75
2021/12/21 05:27:44;;;;;;;22.77;17.05;;;7.30;88.30;;;;;;5013568;28;20169;-78
2021/12/21 05:30:10;;;;;;;32.63;17.33;;;7.30;88.70;;;;;;5013611;28;20172;-76
2021/12/21 05:32:36;;;;;;;20.95;16.88;;;7.30;89.00;;;;;;5013559;28;20018;-67
2021/12/21 05:35:02;;;;;;;21.13;16.25;;;7.30;89.30;;;;;;5013751;28;20125;-68
2021/12/21 05:37:28;;;;;;;24.60;17.20;;;7.20;88.50;;;;;;5013438;28;20022;-67
2021/12/21 05:40:08;;;;;;;23.95;16.38;;;7.20;88.90;;;;;;5013394;28;20028;-67
2021/12/21 05:42:34;;;;;;;27.08;15.90;;;7.10;88.10;;;;;;5013247;28;20080;-67
2021/12/21 05:44:59;;;;;;;24.52;17.77;;;7.20;88.90;;;;;;5013387;28;20026;-71
2021/12/21 05:47:25;;;;;;;26.42;16.20;;;7.20;88.50;;;;;;5013196;28;20084;-72
2021/12/21 05:49:51;;;;;;;21.80;16.40;;;7.20;88.70;;;;;;4995507;28;20523;-74
2021/12/21 05:52:16;;;;;;;27.25;16.30;;;7.20;88.70;;;;;;5013182;28;20088;-71
2021/12/21 05:54:42;;;;;;;23.27;18.17;;;7.20;88.40;;;;;;5013215;28;20097;-75
2021/12/21 05:57:08;;;;;;;22.52;16.60;;;7.20;88.50;;;;;;5013150;28;20022;-71
2021/12/21 05:59:34;;;;;;;22.58;16.45;;;7.20;88.70;;;;;;5013384;28;20030;-73
2021/12/21 06:01:59;;;;;;;26.85;16.80;;;7.20;88.90;;;;;;5013109;28;20044;-71
2021/12/21 06:04:25;;;;;;;23.70;16.60;;;7.20;88.60;;;;;;5013059;28;20029;-74
2021/12/21 06:06:51;;;;;;;23.40;16.77;;;7.20;88.90;;;;;;5013115;28;20029;-68
2021/12/21 06:09:17;;;;;;;22.95;16.50;;;7.20;88.50;;;;;;5013065;28;20037;-71
2021/12/21 06:11:51;;;;;;;22.95;17.67;;;7.20;88.90;;;;;;5013047;28;20034;-69
2021/12/21 06:14:35;;;;;;;;;;;7.20;89.20;;;;;;5013596;28;20021;-71
2021/12/21 06:27:41;;;;;;;24.52;16.15;;;7.40;88.50;;;;;;5012786;28;20437;-74
2021/12/21 06:30:07;;;;;;;26.95;16.85;;;7.40;88.30;;;;;;5012913;28;20049;-74
2021/12/21 06:32:33;;;;;;;25.40;16.05;;;7.40;87.90;;;;;;5020805;28;20056;-74
2021/12/21 06:34:59;;;;;;;24.60;16.10;;;7.40;87.90;;;;;;5013083;28;20399;-67
2021/12/21 06:37:25;;;;;;;23.77;16.65;;;7.40;87.90;;;;;;5021790;28;20459;-70
2021/12/21 06:39:51;;;;;;;26.27;16.95;;;7.30;88.00;;;;;;5020322;28;20030;-66
2021/12/21 06:42:17;;;;;;;21.98;16.13;;;7.30;88.40;;;;;;5017761;28;20456;-65
2021/12/21 06:44:45;;;;;;;24.38;17.25;;;7.20;89.00;;;;;;5012750;28;20107;-66
2021/12/21 06:52:41;;;;;;;22.35;17.08;;;7.30;88.00;;;;;;5015325;28;20053;-66
2021/12/21 06:55:08;;;;;;;22.27;16.67;;;7.30;88.70;;;;;;5013850;28;20463;-70
2021/12/21 06:57:34;;;;;;;26.23;18.15;;;7.30;88.60;;;;;;5013827;28;20348;-76
2021/12/21 07:00:00;;;;;;;23.00;16.75;;;7.30;88.50;;;;;;5021877;28;20430;-74
2021/12/21 07:02:27;;;;;;;24.60;17.05;;;7.30;88.30;;;;;;5012367;28;20049;-73
2021/12/21 07:04:53;;;;;;;24.55;17.42;;;7.30;88.10;;;;;;5012533;28;20174;-67
2021/12/21 07:07:19;;;;;;;25.63;16.90;;;7.30;88.20;;;;;;5012622;28;20030;-68
2021/12/21 07:09:54;;;;;;;26.90;17.13;;;7.30;88.60;;;;;;4994920;28;20041;-71
2021/12/21 07:20:14;;;;;;;25.15;16.52;;;7.40;87.60;;;;;;5012122;28;20022;-69
2021/12/21 07:22:40;;;;;;;21.95;16.25;;;7.40;87.80;;;;;;5012248;28;20034;-69
2021/12/21 07:25:06;;;;;;;25.75;16.70;;;7.40;88.10;;;;;;5012382;28;20036;-69
2021/12/21 07:27:32;;;;;;;25.70;16.30;;;7.40;87.90;;;;;;4995105;28;20030;-69
2021/12/21 07:29:58;;;;;;;25.65;16.60;;;7.40;88.00;;;;;;5018054;28;20475;-70
2021/12/21 07:32:23;;;;;;;27.42;16.80;;;7.40;87.50;;;;;;5015688;28;20084;-69
2021/12/21 07:34:49;;;;;;;27.40;16.35;;;7.50;87.60;;;;;;5015933;28;20100;-69
2021/12/21 07:37:15;;;;;;;23.75;16.70;;;7.50;87.70;;;;;;5015573;28;20032;-70
2021/12/21 07:39:41;;;;;;;44.17;17.25;;;7.50;87.60;;;;;;5016113;28;20430;-68
2021/12/21 07:42:07;;;;;;;43.40;18.45;;;7.50;87.50;;;;;;5035346;28;20025;-68
2021/12/21 07:44:32;;;;;;;50.50;17.42;;;7.50;87.20;;;;;;5035257;28;20184;-69
2021/12/21 07:46:58;;;;;;;30.23;16.05;;;7.50;87.40;;;;;;5035451;28;20029;-70
2021/12/21 07:49:24;;;;;;;31.30;17.08;;;7.50;87.20;;;;;;5034955;28;20133;-74
2021/12/21 07:51:50;;;;;;;26.80;16.02;;;7.60;87.20;;;;;;5035125;28;20083;-70
2021/12/21 07:54:17;;;;;;;35.88;16.83;;;7.60;86.80;;;;;;5034830;28;20033;-67
2021/12/21 07:56:44;;;;;;;27.90;16.42;;;7.60;87.20;;;;;;5034972;28;20132;-67
2021/12/21 07:59:11;;;;;;;23.63;16.90;;;7.70;87.20;;;;;;5034871;28;20058;-67
2021/12/21 08:01:39;;;;;;;27.40;17.38;;;7.80;87.20;;;;;;5035073;28;20032;-69
2021/12/21 08:04:07;;;;;;;30.27;17.88;;;7.90;87.40;;;;;;5034817;28;20029;-70
2021/12/21 08:06:34;;;;;;;30.83;16.88;;;7.90;86.40;;;;;;5035157;28;20048;-69
2021/12/21 08:09:01;;;;;;;29.60;17.15;;;7.90;86.60;;;;;;5034678;28;20024;-70
2021/12/21 08:12:10;;;;;;;26.50;17.88;;;7.90;86.50;;;;;;5035135;28;20124;-68
2021/12/21 08:14:13;;;;;;;31.17;17.90;;;7.90;86.40;;;;;;5034622;28;20039;-67
2021/12/21 08:16:39;;;;;;;29.15;17.90;;;8.00;86.40;;;;;;5016879;28;20386;-68
2021/12/21 08:19:05;;;;;;;30.60;18.77;;;8.00;86.60;;;;;;5034461;28;20535;-70
2021/12/21 08:21:31;;;;;;;28.13;18.08;;;8.00;86.60;;;;;;5034415;28;20104;-71
2021/12/21 08:23:57;;;;;;;24.75;18.08;;;8.00;86.30;;;;;;5034762;28;20104;-70
2021/12/21 08:26:23;;;;;;;31.33;18.35;;;8.00;85.90;;;;;;5034701;28;20022;-68
2021/12/21 08:28:49;;;;;;;30.33;19.23;;;8.10;86.30;;;;;;5016374;28;20399;-71
2021/12/21 08:31:16;;;;;;;34.85;19.77;;;8.10;86.30;;;;;;5034048;28;20045;-69
2021/12/21 08:33:43;;;;;;;25.00;18.70;;;8.20;86.50;;;;;;5034240;28;20037;-69
2021/12/21 08:36:10;;;;;;;28.83;18.38;;;8.30;86.20;;;;;;5034600;28;20053;-68
2021/12/21 08:38:39;;;;;;;29.95;20.33;;;8.40;85.80;;;;;;5033752;28;20017;-68
2021/12/21 08:41:06;;;;;;;28.40;18.45;;;8.50;85.50;;;;;;5034003;28;20463;-70
2021/12/21 08:43:33;;;;;;;29.27;18.15;;;8.50;84.80;;;;;;5016368;28;20451;-69
2021/12/21 08:45:59;;;;;;;36.97;17.65;;;8.60;85.30;;;;;;5034018;28;20360;-73
2021/12/21 08:48:26;;;;;;;29.48;17.75;;;8.70;84.80;;;;;;5033910;28;20033;-68
2021/12/21 08:50:54;;;;;;;32.08;18.23;;;8.70;84.90;;;;;;5034062;28;20121;-69
2021/12/21 08:53:21;;;;;;;34.38;18.88;;;8.80;84.70;;;;;;5033973;28;20017;-68
2021/12/21 08:55:47;;;;;;;32.22;19.23;;;8.80;84.50;;;;;;5033865;28;20079;-69
2021/12/21 08:58:14;;;;;;;27.08;17.38;;;8.90;84.50;;;;;;5015823;28;20029;-68
2021/12/21 09:00:41;;;;;;;32.80;17.63;;;8.90;84.40;;;;;;5033972;28;20462;-68
2021/12/21 09:03:07;;;;;;;26.65;18.23;;;8.90;84.40;;;;;;5033639;28;20437;-68
2021/12/21 09:05:34;;;;;;;30.45;17.75;;;8.90;84.40;;;;;;5015687;28;20029;-69
2021/12/21 09:08:01;;;;;;;27.08;18.30;;;8.80;84.10;;;;;;5015770;28;20017;-69
2021/12/21 09:10:28;;;;;;;31.10;18.10;;;8.80;84.90;;;;;;5015960;28;20048;-68
2021/12/21 09:12:54;;;;;;;37.20;19.05;;;8.80;84.70;;;;;;5033687;28;20022;-66
2021/12/21 09:15:22;;;;;;;30.25;19.15;;;8.70;84.50;;;;;;5016667;28;20026;-67
2021/12/21 09:17:48;;;;;;;34.05;19.30;;;8.70;85.00;;;;;;5015654;28;20559;-67
2021/12/21 09:20:17;;;;;;;33.90;19.88;;;8.60;84.70;;;;;;5015928;28;20113;-71
2021/12/21 09:22:44;;;;;;;33.28;20.38;;;8.70;85.50;;;;;;5033378;28;20087;-67
2021/12/21 09:25:11;;;;;;;31.27;19.00;;;8.80;85.20;;;;;;5033412;28;20109;-67
2021/12/21 09:27:38;;;;;;;28.85;19.60;;;8.80;85.20;;;;;;5033564;28;20079;-69
2021/12/21 09:30:09;;;;;;;31.30;19.08;;;9.00;84.90;;;;;;5015346;28;20045;-67
2021/12/21 09:32:35;;;;;;;35.30;21.17;;;9.10;84.50;;;;;;5033627;28;20102;-68
2021/12/21 09:35:01;;;;;;;31.40;20.08;;;9.20;84.50;;;;;;5033203;28;20037;-68
2021/12/21 09:37:27;;;;;;;34.38;19.55;;;9.40;84.30;;;;;;5033256;28;20026;-68
2021/12/21 09:39:55;;;;;;;33.83;20.55;;;9.50;83.90;;;;;;5032932;28;20040;-68
2021/12/21 09:42:32;;;;;;;28.65;19.95;;;9.70;83.60;;;;;;5033336;28;20025;-67
2021/12/21 09:44:59;;;;;;;29.92;18.77;;;9.90;83.20;;;;;;5033501;28;20056;-68
2021/12/21 09:47:26;;;;;;;28.58;19.20;;;10.10;81.60;;;;;;5015088;28;20025;-68
2021/12/21 09:49:53;;;;;;;27.45;19.27;;;10.20;80.60;;;;;;5032283;28;20136;-67
2021/12/21 09:52:21;;;;;;;29.90;19.70;;;10.30;80.60;;;;;;5033362;28;20394;-67
2021/12/21 09:54:48;;;;;;;30.50;20.38;;;10.40;80.40;;;;;;5033135;28;20099;-67
2021/12/21 09:57:16;;;;;;;27.58;19.88;;;10.50;80.20;;;;;;5032804;28;20104;-67
2021/12/21 09:59:46;;;;;;;30.50;19.67;;;10.60;80.30;;;;;;5032448;28;20021;-68
2021/12/21 10:02:12;;;;;;;29.58;20.05;;;10.70;79.90;;;;;;5032605;28;20383;-69
2021/12/21 10:04:46;;;;;;;34.47;20.17;;;10.80;79.60;;;;;;5032502;28;20022;-68
2021/12/21 10:07:14;;;;;;;30.90;19.90;;;10.90;79.60;;;;;;5032751;28;20029;-68
2021/12/21 10:09:43;;;;;;;32.53;19.52;;;11.00;79.30;;;;;;5033096;28;20075;-68
2021/12/21 10:12:14;;;;;;;32.95;19.55;;;11.10;78.80;;;;;;5032711;28;20103;-71
2021/12/21 10:14:40;;;;;;;37.92;20.58;;;11.20;77.90;;;;;;5032883;28;20060;-68
2021/12/21 10:17:08;;;;;;;29.00;19.25;;;11.30;77.90;;;;;;5032714;28;20033;-68
2021/12/21 10:19:35;;;;;;;31.92;20.13;;;11.40;77.20;;;;;;5032618;28;20033;-68
2021/12/21 10:22:15;;;;;;;26.13;18.13;;;11.50;76.10;;;;;;5033031;28;20515;-68
2021/12/21 10:24:48;;;;;;;23.77;17.02;;;11.60;76.10;;;;;;5033233;28;20033;-68
2021/12/21 10:27:14;;;;;;;30.50;18.27;;;11.70;75.60;;;;;;5032885;28;20026;-67
2021/12/21 10:29:46;;;;;;;26.83;18.17;;;11.80;75.60;;;;;;5032794;28;20115;-71
2021/12/21 10:32:27;;;;;;;26.42;17.98;;;11.90;75.20;;;;;;5015451;28;20026;-67
2021/12/21 10:35:00;;;;;;;28.02;17.27;;;12.00;75.10;;;;;;5032994;28;20316;-69
2021/12/21 10:37:29;;;;;;;27.45;17.67;;;12.10;74.80;;;;;;5014653;28;20137;-68
2021/12/21 10:40:06;;;;;;;28.30;17.77;;;12.20;74.20;;;;;;5032583;28;20029;-68
2021/12/21 10:42:42;;;;;;;24.20;16.20;;;12.30;73.90;;;;;;5032372;28;20440;-68
2021/12/21 10:45:08;;;;;;;27.20;16.98;;;12.30;72.90;;;;;;5032308;28;20025;-70
2021/12/21 10:47:34;;;;;;;30.17;17.80;;;12.40;72.70;;;;;;5032518;28;20312;-69
2021/12/21 10:50:01;;;;;;;31.00;17.70;;;12.40;72.00;;;;;;5032219;28;20056;-68
2021/12/21 10:52:27;;;;;;;28.17;17.98;;;12.60;72.20;;;;;;5032748;28;20437;-70
2021/12/21 10:54:52;;;;;;;24.45;16.65;;;12.60;70.90;;;;;;5014848;28;20029;-69
2021/12/21 10:57:26;;;;;;;26.23;16.83;;;12.70;71.10;;;;;;5032665;28;20022;-69
2021/12/21 10:59:56;;;;;;;24.35;17.13;;;12.70;70.70;;;;;;5032218;28;20022;-70
2021/12/21 11:02:29;;;;;;;23.90;15.93;;;12.80;70.60;;;;;;5034716;28;20029;-70
2021/12/21 11:05:02;;;;;;;25.65;17.02;;;12.90;70.00;;;;;;5035986;28;20034;-68
2021/12/21 11:10:19;;;;;;;23.90;15.18;;;13.10;70.00;;;;;;5036172;28;20044;-68
2021/12/21 11:12:45;;;;;;;23.90;14.40;;;13.10;69.20;;;;;;5036054;28;20026;-68
2021/12/21 11:15:19;;;;;;;23.73;15.13;;;13.10;68.20;;;;;;5036224;28;20048;-68
2021/12/21 11:17:45;;;;;;;19.05;13.73;;;13.10;68.20;;;;;;5035888;28;20018;-69
2021/12/21 11:20:12;;;;;;;23.85;16.23;;;13.00;68.20;;;;;;5035833;28;20223;-71
2021/12/21 11:22:41;;;;;;;22.02;13.77;;;12.90;67.70;;;;;;5036314;28;20041;-68
2021/12/21 11:25:09;;;;;;;23.60;14.98;;;12.90;68.00;;;;;;5035646;28;20025;-68
2021/12/21 11:27:38;;;;;;;22.92;15.23;;;13.00;68.10;;;;;;5017657;28;20014;-67
2021/12/21 11:30:11;;;;;;;19.17;14.40;;;13.20;67.80;;;;;;5035754;28;20390;-68
2021/12/21 11:32:47;;;;;;;25.35;16.10;;;13.30;67.30;;;;;;5002311;28;20029;-69
2021/12/21 11:37:51;;;;;;;19.30;13.25;;;13.60;66.30;;;;;;5035986;28;20487;-73
2021/12/21 11:40:28;;;;;;;16.27;12.55;;;13.70;65.30;;;;;;5035219;28;20028;-70
2021/12/21 11:42:57;;;;;;;17.85;13.52;;;13.70;65.10;;;;;;5034619;28;20037;-70
2021/12/21 11:45:46;;;;;;;18.48;14.15;;;13.70;64.90;;;;;;5034964;28;20374;-73
2021/12/21 11:48:20;;;;;;;19.98;14.73;;;13.70;65.00;;;;;;5035694;28;20374;-69
2021/12/21 11:50:48;;;;;;;23.70;14.48;;;13.80;63.90;;;;;;5034921;28;20099;-72
2021/12/21 11:53:17;;;;;;;21.73;14.32;;;13.90;63.30;;;;;;5035262;28;20021;-69
2021/12/21 11:55:49;;;;;;;21.02;15.18;;;14.00;62.80;;;;;;5034783;28;20033;-69
2021/12/21 11:58:20;;;;;;;24.80;15.50;;;14.10;62.20;;;;;;5034970;28;20096;-70
2021/12/21 12:00:51;;;;;;;19.05;12.25;;;14.20;63.00;;;;;;5035312;28;20033;-69
2021/12/21 12:03:23;;;;;;;18.17;13.25;;;14.30;61.70;;;;;;5035484;28;20435;-67
2021/12/21 12:05:51;;;;;;;22.38;14.95;;;14.40;60.80;;;;;;5034955;28;20076;-72
2021/12/21 12:08:16;;;;;;;20.20;12.55;;;14.40;60.90;;;;;;5034874;28;20108;-68
2021/12/21 12:10:50;;;;;;;16.90;12.07;;;14.50;60.20;;;;;;5034853;28;20120;-71
2021/12/21 12:13:40;;;;;;;14.23;10.55;;;14.50;60.30;;;;;;5033419;28;20034;-67
2021/12/21 12:16:10;;;;;;;20.73;14.15;;;14.60;60.30;;;;;;5034399;28;20507;-67
2021/12/21 12:18:49;;;;;;;18.33;13.25;;;14.60;60.20;;;;;;5034400;28;20082;-69
2021/12/21 12:21:20;;;;;;;19.90;12.90;;;14.70;60.00;;;;;;5034616;28;20022;-69
2021/12/21 12:24:05;;;;;;;18.02;11.60;;;14.80;60.30;;;;;;5017003;28;20022;-70
2021/12/21 12:26:38;;;;;;;16.15;11.23;;;14.80;59.60;;;;;;5016846;28;20029;-67
2021/12/21 12:29:17;;;;;;;;;;;14.90;59.50;;;;;;5035045;28;20418;-67
2021/12/21 12:32:00;;;;;;;19.88;11.80;;;14.90;57.60;;;;;;5034507;28;20370;-69
2021/12/21 12:34:29;;;;;;;20.27;12.30;;;14.80;59.30;;;;;;5016657;28;20113;-70
2021/12/21 12:36:55;;;;;;;16.38;10.70;;;14.70;59.80;;;;;;5034401;28;20382;-68
2021/12/21 12:39:35;;;;;;;14.80;10.23;;;14.60;59.70;;;;;;5034456;28;20041;-69
2021/12/21 12:42:09;;;;;;;15.73;9.30;;;14.50;59.80;;;;;;5034128;28;20041;-68
2021/12/21 12:44:37;;;;;;;17.83;9.27;;;14.60;60.10;;;;;;5017812;28;20018;-70
2021/12/21 12:47:05;;;;;;;18.35;7.60;;;14.70;59.90;;;;;;5034090;28;20100;-69
2021/12/21 12:49:36;;;;;;;14.23;7.22;;;14.60;59.70;;;;;;5033792;28;20046;-69
2021/12/21 12:52:17;;;;;;;13.15;8.43;;;14.60;59.50;;;;;;5033877;28;20021;-70
2021/12/21 12:54:46;;;;;;;13.85;7.85;;;14.50;59.50;;;;;;5034300;28;20037;-69
2021/12/21 12:57:32;;;;;;;11.45;7.18;;;14.50;59.80;;;;;;5033794;28;20419;-67
2021/12/21 13:00:11;;;;;;;12.52;8.30;;;14.40;60.10;;;;;;5033681;28;20029;-68
2021/12/21 13:02:37;;;;;;;16.35;8.63;;;14.40;60.20;;;;;;5034162;28;20104;-68
2021/12/21 13:05:09;;;;;;;15.82;8.15;;;14.40;60.30;;;;;;5033949;28;20044;-70
2021/12/21 13:07:35;;;;;;;12.70;9.00;;;14.40;60.30;;;;;;5033657;28;20030;-68
2021/12/21 13:10:09;;;;;;;15.02;8.93;;;14.40;60.40;;;;;;5033565;28;20025;-70
2021/12/21 13:12:35;;;;;;;14.90;9.35;;;14.30;60.70;;;;;;5033673;28;20040;-68
2021/12/21 13:15:01;;;;;;;12.57;7.50;;;14.30;60.60;;;;;;5033541;28;20414;-68
2021/12/21 13:17:28;;;;;;;11.20;7.53;;;14.30;60.50;;;;;;5033311;28;20080;-69
2021/12/21 13:19:54;;;;;;;13.75;8.35;;;14.30;60.30;;;;;;5033274;28;20025;-67
2021/12/21 13:22:27;;;;;;;9.73;6.70;;;14.30;60.50;;;;;;5033521;28;20089;-67
2021/12/21 13:24:54;;;;;;;10.57;7.60;;;14.30;60.30;;;;;;5033625;28;20176;-70
2021/12/21 13:27:25;;;;;;;13.60;8.95;;;14.30;60.40;;;;;;5033414;28;20593;-67
2021/12/21 13:29:52;;;;;;;11.82;7.47;;;14.30;60.30;;;;;;5033533;28;20025;-68
2021/12/21 13:32:21;;;;;;;11.88;7.68;;;14.30;60.20;;;;;;5033184;28;20033;-68
2021/12/21 13:34:52;;;;;;;11.32;7.05;;;14.30;60.20;;;;;;5033324;28;20017;-69
2021/12/21 13:37:19;;;;;;;12.98;8.23;;;14.40;60.30;;;;;;5033061;28;20463;-69
2021/12/21 13:39:57;;;;;;;13.13;7.55;;;14.40;60.40;;;;;;5033379;28;20426;-68
2021/12/21 13:42:27;;;;;;;16.40;8.02;;;14.40;60.50;;;;;;5033478;28;20156;-71
2021/12/21 13:44:57;;;;;;;12.13;7.95;;;14.30;60.40;;;;;;5033196;28;20033;-67
2021/12/21 13:47:42;;;;;;;10.70;7.40;;;14.30;60.30;;;;;;5015258;28;20052;-68
2021/12/21 13:50:08;;;;;;;19.13;7.70;;;14.30;60.40;;;;;;5033298;28;20092;-67
2021/12/21 13:52:45;;;;;;;10.70;7.43;;;14.30;60.40;;;;;;5033130;28;20022;-68
2021/12/21 13:55:26;;;;;;;18.20;8.40;;;14.30;60.60;;;;;;5033172;28;20386;-68
2021/12/21 13:57:55;;;;;;;12.27;8.07;;;14.20;60.30;;;;;;5032792;28;20013;-67